createdAt,value
2023-05-02T05:22:21.109Z,960.7454
2023-05-02T05:23:15.261Z,960.7466
2023-05-02T05:24:17.115Z,960.7615
2023-05-02T05:25:18.948Z,960.7446
2023-05-02T05:26:20.790Z,960.7777
2023-05-02T05:27:22.647Z,960.8377
2023-05-02T05:28:24.486Z,960.9061
2023-05-02T05:29:26.339Z,960.9423
2023-05-02T05:30:28.186Z,960.9846
2023-05-02T05:31:30.063Z,960.9915
2023-05-02T05:32:31.852Z,961.0100
2023-05-02T05:33:33.712Z,961.0431
2023-05-02T05:34:35.552Z,961.0846
2023-05-02T05:35:37.358Z,961.1362
2023-05-02T05:36:39.193Z,961.1415
2023-05-02T05:37:41.024Z,961.0977
2023-05-02T05:38:42.972Z,961.0839
2023-05-02T05:39:44.722Z,961.1177
2023-05-02T05:40:46.576Z,961.1646
2023-05-02T05:41:48.411Z,961.2131
2023-05-02T05:42:50.255Z,961.2477
2023-05-02T05:43:52.084Z,961.2208
2023-05-02T05:44:53.924Z,961.2069
2023-05-02T05:45:55.751Z,961.2231
2023-05-02T05:46:57.620Z,961.2462
2023-05-02T05:47:59.486Z,961.2777
2023-05-02T05:49:01.262Z,961.3046
2023-05-02T05:50:03.398Z,961.2792
2023-05-02T05:51:04.931Z,961.2515
2023-05-02T05:52:06.767Z,961.2631
2023-05-02T05:53:08.732Z,961.2715
2023-05-02T05:54:10.451Z,961.3015
2023-05-02T05:55:12.306Z,961.3231
2023-05-02T05:56:14.154Z,961.3215
2023-05-02T05:57:15.998Z,961.2800
2023-05-02T05:58:17.814Z,961.2662
2023-05-02T05:59:19.666Z,961.2800
2023-05-02T06:00:21.496Z,961.2861
2023-05-02T06:01:23.331Z,961.3023
2023-05-02T06:02:25.204Z,961.3115
2023-05-02T06:03:27.125Z,961.2746
2023-05-02T06:04:28.916Z,961.2477
2023-05-02T06:05:30.715Z,961.2454
2023-05-02T06:06:32.576Z,961.2792
2023-05-02T06:07:34.362Z,961.2600
2023-05-02T06:08:36.277Z,961.2639
2023-05-02T06:09:38.037Z,961.2623
2023-05-02T06:10:39.883Z,961.2031
2023-05-02T06:11:41.703Z,961.2108
2023-05-02T06:12:43.544Z,961.2446
2023-05-02T06:13:45.377Z,961.2892
2023-05-02T06:14:47.210Z,961.3162
2023-05-02T06:15:49.081Z,961.3538
2023-05-02T06:16:50.885Z,961.3500
2023-05-02T06:17:52.818Z,961.3254
2023-05-02T06:18:54.554Z,961.3331
2023-05-02T06:19:56.364Z,961.3785
2023-05-02T06:20:58.226Z,961.4223
2023-05-02T06:22:00.108Z,961.4400
2023-05-02T06:23:01.895Z,961.4500
2023-05-02T06:24:03.723Z,961.4308
2023-05-02T06:25:05.564Z,961.4092
2023-05-02T06:26:07.393Z,961.4362
2023-05-02T06:27:09.225Z,961.4716
2023-05-02T06:28:11.073Z,961.4792
2023-05-02T06:29:12.892Z,961.4615
2023-05-02T06:30:14.766Z,961.4362
2023-05-02T06:31:16.621Z,961.4354
2023-05-02T06:32:18.410Z,961.4477
2023-05-02T06:33:20.239Z,961.4639
2023-05-02T06:34:22.084Z,961.5070
2023-05-02T06:35:23.894Z,961.5269
2023-05-02T06:36:25.738Z,961.5070
2023-05-02T06:37:27.572Z,961.4623
2023-05-02T06:38:29.417Z,961.4631
2023-05-02T06:39:31.244Z,961.4977
2023-05-02T06:40:33.096Z,961.5454
2023-05-02T06:41:34.933Z,961.5192
2023-05-02T06:42:36.771Z,961.5247
2023-05-02T06:43:38.679Z,961.4969
2023-05-02T06:44:40.435Z,961.4554
2023-05-02T06:45:42.292Z,961.4654
2023-05-02T06:46:44.196Z,961.5131
2023-05-02T06:47:46.066Z,961.5562
2023-05-02T06:48:47.829Z,961.5715
2023-05-02T06:49:49.645Z,961.5723
2023-05-02T06:50:51.487Z,961.5339
2023-05-02T06:51:53.297Z,961.5416
2023-05-02T06:52:55.175Z,961.5807
2023-05-02T06:53:56.969Z,961.6100
2023-05-02T06:54:58.840Z,961.6285
2023-05-02T06:56:00.645Z,961.6177
2023-05-02T06:57:02.496Z,961.5900
2023-05-02T06:58:04.354Z,961.5685
2023-05-02T06:59:06.159Z,961.6031
2023-05-02T07:00:08.208Z,961.6500
2023-05-02T07:01:09.895Z,961.6854
2023-05-02T07:02:11.667Z,961.6885
2023-05-02T07:03:13.565Z,961.6554
2023-05-02T07:04:15.390Z,961.6161
2023-05-02T07:05:17.234Z,961.6315
2023-05-02T07:06:19.144Z,961.6631
2023-05-02T07:07:20.870Z,961.6931
2023-05-02T07:08:22.725Z,961.7000
2023-05-02T07:09:24.552Z,961.6954
2023-05-02T07:10:26.430Z,961.6631
2023-05-02T07:11:28.218Z,961.6823
2023-05-02T07:12:30.041Z,961.7246
2023-05-02T07:13:31.881Z,961.7731
2023-05-02T07:14:33.724Z,961.7985
2023-05-02T07:15:35.559Z,961.7923
2023-05-02T07:16:37.489Z,961.7323
2023-05-02T07:17:39.245Z,961.7161
2023-05-02T07:18:41.080Z,961.7438
2023-05-02T07:19:45.379Z,961.7877
2023-05-02T07:20:44.753Z,961.8092
2023-05-02T07:21:46.577Z,961.7831
2023-05-02T07:22:48.410Z,961.7677
2023-05-02T07:23:50.237Z,961.7654
2023-05-02T07:24:52.078Z,961.7623
2023-05-02T07:25:53.906Z,961.7369
2023-05-02T07:27:03.570Z,961.7631
2023-05-02T07:27:57.609Z,961.7391
2023-05-02T07:28:59.437Z,961.7338
2023-05-02T07:30:01.841Z,961.7292
2023-05-02T07:31:03.102Z,961.7169
2023-05-02T07:32:04.979Z,961.7031
2023-05-02T07:33:06.830Z,961.6870
2023-05-02T07:34:08.621Z,961.6730
2023-05-02T07:35:10.489Z,961.6700
2023-05-02T07:36:12.291Z,961.6592
2023-05-02T07:37:22.111Z,961.6600
2023-05-02T07:38:16.006Z,961.6650
2023-05-02T07:39:17.796Z,961.6592
2023-05-02T07:40:19.636Z,961.6638
2023-05-02T07:41:21.515Z,961.6631
2023-05-02T07:42:23.319Z,961.6600
2023-05-02T07:43:25.141Z,961.6600
2023-05-02T07:44:26.978Z,961.6569
2023-05-02T07:45:28.819Z,961.6554
2023-05-02T07:46:30.689Z,961.6561
2023-05-02T07:47:32.480Z,961.6592
2023-05-02T07:48:34.312Z,961.6569
2023-05-02T07:49:36.145Z,961.6523
2023-05-02T07:50:37.969Z,961.6508
2023-05-02T07:51:39.811Z,961.6516
2023-05-02T07:52:41.634Z,961.6539
2023-05-02T07:53:43.466Z,961.6615
2023-05-02T07:54:45.295Z,961.6600
2023-05-02T07:55:47.134Z,961.6500
2023-05-02T07:56:48.988Z,961.6423
2023-05-02T07:57:50.823Z,961.6485
2023-05-02T07:58:52.687Z,961.6554
2023-05-02T07:59:54.500Z,961.6592
2023-05-02T08:00:56.311Z,961.6623
2023-05-02T08:01:58.162Z,961.6692
2023-05-02T08:03:00.132Z,961.6746
2023-05-02T08:04:01.985Z,961.6838
2023-05-02T08:05:03.689Z,961.6915
2023-05-02T08:06:05.542Z,961.7000
2023-05-02T08:07:07.334Z,961.7085
2023-05-02T08:08:09.175Z,961.7139
2023-05-02T08:09:11.006Z,961.7238
2023-05-02T08:10:12.824Z,961.7330
2023-05-02T08:11:14.662Z,961.7408
2023-05-02T08:12:16.499Z,961.7784
2023-05-02T08:13:18.334Z,961.8015
2023-05-02T08:14:20.187Z,961.7923
2023-05-02T08:15:22.033Z,961.8100
2023-05-02T08:16:23.899Z,961.7731
2023-05-02T08:17:25.686Z,961.7377
2023-05-02T08:18:27.513Z,961.7454
2023-05-02T08:19:29.358Z,961.7754
2023-05-02T08:20:31.211Z,961.8285
2023-05-02T08:21:33.120Z,961.8692
2023-05-02T08:22:34.927Z,961.9023
2023-05-02T08:23:36.733Z,961.9016
2023-05-02T08:24:38.586Z,961.9069
2023-05-02T08:25:40.403Z,961.9300
2023-05-02T08:26:42.220Z,961.9639
2023-05-02T08:27:44.077Z,961.9854
2023-05-02T08:28:45.901Z,961.9785
2023-05-02T08:29:47.757Z,961.9138
2023-05-02T08:30:49.604Z,961.8538
2023-05-02T08:31:51.446Z,961.8723
2023-05-02T08:32:53.288Z,961.9116
2023-05-02T08:33:55.128Z,961.9531
2023-05-02T08:34:56.936Z,961.9908
2023-05-02T08:35:58.787Z,961.9861
2023-05-02T08:37:00.605Z,961.9338
2023-05-02T08:38:02.470Z,961.9200
2023-05-02T08:39:04.289Z,961.9230
2023-05-02T08:40:06.128Z,961.9408
2023-05-02T08:41:07.961Z,961.9761
2023-05-02T08:42:09.791Z,962.0015
2023-05-02T08:43:11.651Z,961.9492
2023-05-02T08:44:13.476Z,961.9016
2023-05-02T08:45:16.520Z,961.9215
2023-05-02T08:46:17.278Z,961.9531
2023-05-02T08:47:19.209Z,961.9969
2023-05-02T08:48:21.012Z,962.0377
2023-05-02T08:49:22.673Z,962.0377
2023-05-02T08:50:24.515Z,961.9877
2023-05-02T08:51:26.368Z,961.9708
2023-05-02T08:52:28.182Z,962.0015
2023-05-02T08:53:30.035Z,962.0392
2023-05-02T08:54:31.861Z,962.0739
2023-05-02T08:55:33.702Z,962.0992
2023-05-02T08:56:35.544Z,962.0646
2023-05-02T08:57:37.384Z,962.0438
2023-05-02T08:58:39.208Z,962.0438
2023-05-02T08:59:41.063Z,962.0592
2023-05-02T09:00:42.956Z,962.0762
2023-05-02T09:01:44.833Z,962.0916
2023-05-02T09:02:46.668Z,962.0469
2023-05-02T09:03:48.512Z,961.9838
2023-05-02T09:04:50.320Z,961.9708
2023-05-02T09:05:52.100Z,962.0023
2023-05-02T09:06:53.959Z,962.0354
2023-05-02T09:07:55.755Z,962.0700
2023-05-02T09:08:57.778Z,962.0823
2023-05-02T09:09:59.508Z,962.0277
2023-05-02T09:11:01.289Z,962.0015
2023-05-02T09:12:03.126Z,962.0162
2023-05-02T09:13:04.997Z,962.0438
2023-05-02T09:14:06.820Z,962.0877
2023-05-02T09:15:08.641Z,962.1161
2023-05-02T09:16:10.515Z,962.0777
2023-05-02T09:17:12.332Z,962.0177
2023-05-02T09:18:14.162Z,962.0162
2023-05-02T09:19:16.013Z,962.0646
2023-05-02T09:20:17.847Z,962.0984
2023-05-02T09:21:21.284Z,962.1238
2023-05-02T09:22:21.560Z,962.1054
2023-05-02T09:23:23.375Z,962.0592
2023-05-02T09:24:25.223Z,962.0215
2023-05-02T09:25:27.126Z,962.0485
2023-05-02T09:26:30.354Z,962.0670
2023-05-02T09:27:30.804Z,962.0823
2023-05-02T09:28:32.641Z,962.1246
2023-05-02T09:29:34.454Z,962.0807
2023-05-02T09:30:36.297Z,962.0415
2023-05-02T09:31:55.032Z,962.0515
2023-05-02T09:32:40.974Z,962.0685
2023-05-02T09:33:41.818Z,962.0723
2023-05-02T09:34:43.649Z,962.1154
2023-05-02T09:35:45.539Z,962.1046
2023-05-02T09:36:47.320Z,962.0300
2023-05-02T09:37:49.155Z,961.9838
2023-05-02T09:38:51.018Z,962.0200
2023-05-02T09:39:52.826Z,962.0546
2023-05-02T09:40:54.667Z,962.0869
2023-05-02T09:41:56.513Z,962.0961
2023-05-02T09:42:58.320Z,962.0554
2023-05-02T09:44:00.181Z,962.0316
2023-05-02T09:45:02.093Z,962.0431
2023-05-02T09:46:03.868Z,962.0615
2023-05-02T09:47:05.691Z,962.0900
2023-05-02T09:48:07.553Z,962.1238
2023-05-02T09:49:09.363Z,962.1115
2023-05-02T09:50:11.196Z,962.0592
2023-05-02T09:51:13.026Z,962.0377
2023-05-02T09:52:14.848Z,962.0739
2023-05-02T09:53:16.690Z,962.1000
2023-05-02T09:54:18.531Z,962.1462
2023-05-02T09:55:20.376Z,962.1561
2023-05-02T09:56:23.896Z,962.1177
2023-05-02T09:57:24.035Z,962.0708
2023-05-02T09:58:25.882Z,962.0877
2023-05-02T09:59:27.726Z,962.1323
2023-05-02T10:00:29.567Z,962.1615
2023-05-02T10:01:31.404Z,962.1908
2023-05-02T10:02:33.281Z,962.1584
2023-05-02T10:03:35.081Z,962.0923
2023-05-02T10:04:36.955Z,962.0708
2023-05-02T10:05:38.761Z,962.1046
2023-05-02T10:06:40.678Z,962.1462
2023-05-02T10:07:42.443Z,962.1792
2023-05-02T10:08:44.285Z,962.1761
2023-05-02T10:09:46.148Z,962.1477
2023-05-02T10:10:47.937Z,962.1130
2023-05-02T10:11:49.785Z,962.1354
2023-05-02T10:12:51.614Z,962.1577
2023-05-02T10:13:53.461Z,962.1900
2023-05-02T10:14:55.323Z,962.2323
2023-05-02T10:15:57.259Z,962.1892
2023-05-02T10:16:58.988Z,962.1346
2023-05-02T10:18:00.934Z,962.1339
2023-05-02T10:19:02.664Z,962.1539
2023-05-02T10:20:04.504Z,962.1731
2023-05-02T10:21:06.334Z,962.1977
2023-05-02T10:22:08.184Z,962.1792
2023-05-02T10:23:10.018Z,962.1638
2023-05-02T10:24:11.862Z,962.1708
2023-05-02T10:25:13.737Z,962.1792
2023-05-02T10:26:15.542Z,962.2008
2023-05-02T10:27:17.373Z,962.2223
2023-05-02T10:28:19.206Z,962.2215
2023-05-02T10:29:21.047Z,962.1769
2023-05-02T10:30:22.884Z,962.1346
2023-05-02T10:31:24.838Z,962.1523
2023-05-02T10:32:26.613Z,962.1777
2023-05-02T10:33:28.370Z,962.2154
2023-05-02T10:34:30.210Z,962.2238
2023-05-02T10:35:32.045Z,962.1723
2023-05-02T10:36:33.880Z,962.1285
2023-05-02T10:37:35.751Z,962.1315
2023-05-02T10:38:37.612Z,962.1669
2023-05-02T10:39:39.406Z,962.1830
2023-05-02T10:40:41.241Z,962.2008
2023-05-02T10:41:43.095Z,962.1746
2023-05-02T10:42:44.915Z,962.1169
2023-05-02T10:43:46.787Z,962.1115
2023-05-02T10:44:48.589Z,962.1223
2023-05-02T10:45:50.419Z,962.1500
2023-05-02T10:46:52.283Z,962.1692
2023-05-02T10:47:54.145Z,962.1677
2023-05-02T10:48:55.920Z,962.0900
2023-05-02T10:49:57.765Z,962.0446
2023-05-02T10:50:59.597Z,962.0515
2023-05-02T10:52:01.424Z,962.1123
2023-05-02T10:53:03.275Z,962.1631
2023-05-02T10:54:05.110Z,962.1715
2023-05-02T10:55:06.938Z,962.1185
2023-05-02T10:56:08.814Z,962.0577
2023-05-02T10:57:10.613Z,962.0608
2023-05-02T10:58:12.471Z,962.0892
2023-05-02T10:59:14.300Z,962.1169
2023-05-02T11:00:16.140Z,962.1339
2023-05-02T11:01:18.004Z,962.1215
2023-05-02T11:02:19.893Z,962.0508
2023-05-02T11:03:21.698Z,962.0223
2023-05-02T11:04:23.493Z,962.0331
2023-05-02T11:05:25.352Z,962.0530
2023-05-02T11:06:27.191Z,962.0800
2023-05-02T11:07:29.039Z,962.1008
2023-05-02T11:08:30.867Z,962.0461
2023-05-02T11:09:32.721Z,962.0377
2023-05-02T11:10:34.564Z,962.0446
2023-05-02T11:11:36.367Z,962.0662
2023-05-02T11:12:38.203Z,962.1023
2023-05-02T11:13:40.062Z,962.1408
2023-05-02T11:14:41.874Z,962.0954
2023-05-02T11:15:43.768Z,962.0316
2023-05-02T11:16:45.592Z,962.0385
2023-05-02T11:17:47.416Z,962.0685
2023-05-02T11:18:49.241Z,962.0861
2023-05-02T11:19:51.089Z,962.1108
2023-05-02T11:20:52.906Z,962.0992
2023-05-02T11:21:54.749Z,962.0346
2023-05-02T11:22:56.585Z,961.9861
2023-05-02T11:23:58.407Z,961.9823
2023-05-02T11:25:00.418Z,962.0108
2023-05-02T11:26:02.128Z,962.0339
2023-05-02T11:27:03.933Z,962.0630
2023-05-02T11:28:05.770Z,962.0292
2023-05-02T11:29:07.618Z,962.0046
2023-05-02T11:30:09.580Z,962.0170
2023-05-02T11:31:11.291Z,962.0377
2023-05-02T11:32:13.177Z,962.0815
2023-05-02T11:33:15.039Z,962.1292
2023-05-02T11:34:16.793Z,962.1270
2023-05-02T11:35:18.624Z,962.0461
2023-05-02T11:36:20.483Z,961.9539
2023-05-02T11:37:22.319Z,961.9715
2023-05-02T11:38:24.152Z,961.9938
2023-05-02T11:39:25.987Z,962.0208
2023-05-02T11:40:27.831Z,962.0339
2023-05-02T11:41:29.656Z,961.9646
2023-05-02T11:42:31.518Z,961.9539
2023-05-02T11:43:33.356Z,961.9600
2023-05-02T11:44:35.177Z,961.9885
2023-05-02T11:45:37.002Z,962.0192
2023-05-02T11:46:39.001Z,962.0247
2023-05-02T11:47:40.739Z,962.0046
2023-05-02T11:48:42.516Z,961.9515
2023-05-02T11:49:44.351Z,961.9454
2023-05-02T11:50:49.674Z,961.9485
2023-05-02T11:51:48.032Z,961.9761
2023-05-02T11:52:49.869Z,962.0131
2023-05-02T11:53:51.715Z,962.0262
2023-05-02T11:54:53.568Z,961.9946
2023-05-02T11:55:55.396Z,961.9485
2023-05-02T11:56:57.226Z,961.9938
2023-05-02T11:57:59.057Z,962.0308
2023-05-02T11:59:00.913Z,962.0608
2023-05-02T12:00:02.752Z,962.1000
2023-05-02T12:01:04.575Z,962.0516
2023-05-02T12:02:06.410Z,961.9985
2023-05-02T12:03:08.378Z,962.0008
2023-05-02T12:04:10.092Z,962.0208
2023-05-02T12:05:11.980Z,962.0431
2023-05-02T12:06:14.113Z,962.0869
2023-05-02T12:07:15.637Z,962.0977
2023-05-02T12:08:17.444Z,962.0423
2023-05-02T12:09:19.338Z,962.0446
2023-05-02T12:10:21.123Z,962.0477
2023-05-02T12:11:22.958Z,962.0777
2023-05-02T12:12:24.791Z,962.1023
2023-05-02T12:13:26.651Z,962.1138
2023-05-02T12:14:28.451Z,962.0461
2023-05-02T12:15:30.291Z,962.0146
2023-05-02T12:16:32.143Z,962.0262
2023-05-02T12:17:34.006Z,962.0600
2023-05-02T12:18:35.833Z,962.0839
2023-05-02T12:19:37.652Z,962.1223
2023-05-02T12:20:39.492Z,962.1115
2023-05-02T12:21:41.313Z,962.0615
2023-05-02T12:22:43.144Z,962.0569
2023-05-02T12:23:44.995Z,962.0707
2023-05-02T12:24:46.825Z,962.1523
2023-05-02T12:25:48.667Z,962.2300
2023-05-02T12:26:51.872Z,962.2985
2023-05-02T12:27:52.335Z,962.2423
2023-05-02T12:28:54.184Z,962.1915
2023-05-02T12:29:56.005Z,962.2277
2023-05-02T12:30:57.833Z,962.2423
2023-05-02T12:31:59.797Z,962.2608
2023-05-02T12:33:01.562Z,962.2969
2023-05-02T12:34:03.375Z,962.2854
2023-05-02T12:35:05.805Z,962.2923
2023-05-02T12:36:07.042Z,962.3023
2023-05-02T12:37:08.871Z,962.3185
2023-05-02T12:38:10.696Z,962.3292
2023-05-02T12:39:12.539Z,962.3431
2023-05-02T12:40:14.409Z,962.3354
2023-05-02T12:41:16.207Z,962.2762
2023-05-02T12:42:18.051Z,962.2523
2023-05-02T12:43:19.885Z,962.2715
2023-05-02T12:44:21.730Z,962.3269
2023-05-02T12:45:23.580Z,962.3508
2023-05-02T12:46:25.491Z,962.3615
2023-05-02T12:47:27.399Z,962.3284
2023-05-02T12:48:29.098Z,962.3015
2023-05-02T12:49:30.939Z,962.3315
2023-05-02T12:50:32.771Z,962.3931
2023-05-02T12:51:34.877Z,962.4330
2023-05-02T12:52:36.460Z,962.4370
2023-05-02T12:53:38.285Z,962.3907
2023-05-02T12:54:40.115Z,962.3285
2023-05-02T12:55:41.964Z,962.3115
2023-05-02T12:56:43.951Z,962.3461
2023-05-02T12:57:45.645Z,962.4016
2023-05-02T12:58:47.498Z,962.4438
2023-05-02T12:59:49.308Z,962.4531
2023-05-02T13:00:51.174Z,962.4100
2023-05-02T13:01:52.978Z,962.3885
2023-05-02T13:02:54.854Z,962.4300
2023-05-02T13:03:56.659Z,962.4654
2023-05-02T13:04:58.496Z,962.5092
2023-05-02T13:06:00.379Z,962.5215
2023-05-02T13:07:02.225Z,962.4892
2023-05-02T13:08:04.086Z,962.4523
2023-05-02T13:09:05.872Z,962.4623
2023-05-02T13:10:07.737Z,962.5008
2023-05-02T13:11:09.542Z,962.5331
2023-05-02T13:12:11.394Z,962.5361
2023-05-02T13:13:13.245Z,962.5115
2023-05-02T13:14:15.073Z,962.4454
2023-05-02T13:15:16.936Z,962.4169
2023-05-02T13:16:18.942Z,962.4431
2023-05-02T13:17:20.715Z,962.4246
2023-05-02T13:18:22.451Z,962.4423
2023-05-02T13:19:24.261Z,962.4308
2023-05-02T13:20:26.094Z,962.3762
2023-05-02T13:21:27.927Z,962.3392
2023-05-02T13:22:29.772Z,962.3285
2023-05-02T13:23:31.592Z,962.3416
2023-05-02T13:24:33.419Z,962.3585
2023-05-02T13:25:35.260Z,962.3931
2023-05-02T13:26:37.150Z,962.3331
2023-05-02T13:27:38.949Z,962.2969
2023-05-02T13:28:40.838Z,962.3077
2023-05-02T13:29:42.667Z,962.3115
2023-05-02T13:30:44.527Z,962.3285
2023-05-02T13:31:46.342Z,962.3377
2023-05-02T13:32:48.203Z,962.3023
2023-05-02T13:33:50.014Z,962.2223
2023-05-02T13:34:51.854Z,962.2062
2023-05-02T13:35:53.696Z,962.2323
2023-05-02T13:36:55.536Z,962.2438
2023-05-02T13:37:57.371Z,962.2585
2023-05-02T13:38:59.225Z,962.2354
2023-05-02T13:40:01.226Z,962.1823
2023-05-02T13:41:02.884Z,962.1561
2023-05-02T13:42:06.100Z,962.1500
2023-05-02T13:43:06.551Z,962.1592
2023-05-02T13:44:08.390Z,962.1685
2023-05-02T13:45:10.251Z,962.1584
2023-05-02T13:46:12.112Z,962.0984
2023-05-02T13:47:13.915Z,962.0646
2023-05-02T13:48:15.779Z,962.0839
2023-05-02T13:49:17.588Z,962.1100
2023-05-02T13:50:19.438Z,962.1346
2023-05-02T13:51:21.282Z,962.1592
2023-05-02T13:52:23.113Z,962.1108
2023-05-02T13:53:24.948Z,962.0385
2023-05-02T13:54:26.792Z,962.0108
2023-05-02T13:55:28.634Z,962.0354
2023-05-02T13:56:30.470Z,962.0515
2023-05-02T13:57:32.315Z,962.0700
2023-05-02T13:58:34.183Z,962.0623
2023-05-02T13:59:36.132Z,961.9992
2023-05-02T14:00:37.806Z,961.9815
2023-05-02T14:01:39.703Z,961.9969
2023-05-02T14:02:41.590Z,962.0185
2023-05-02T14:03:43.409Z,962.0485
2023-05-02T14:04:45.153Z,962.0493
2023-05-02T14:05:47.001Z,961.9838
2023-05-02T14:06:48.898Z,961.9377
2023-05-02T14:07:50.673Z,961.9392
2023-05-02T14:08:52.597Z,961.9539
2023-05-02T14:09:54.348Z,961.9854
2023-05-02T14:10:56.240Z,962.0008
2023-05-02T14:11:58.041Z,961.9692
2023-05-02T14:12:59.869Z,961.9192
2023-05-02T14:14:01.705Z,961.9169
2023-05-02T14:15:03.643Z,961.9500
2023-05-02T14:16:05.433Z,961.9861
2023-05-02T14:17:07.237Z,962.0284
2023-05-02T14:18:09.311Z,962.0300
2023-05-02T14:19:19.556Z,961.9861
2023-05-02T14:20:12.744Z,961.9975
2023-05-02T14:21:14.562Z,962.0223
2023-05-02T14:22:16.406Z,962.0477
2023-05-02T14:23:18.235Z,962.0662
2023-05-02T14:24:20.072Z,962.0592
2023-05-02T14:25:21.917Z,961.9815
2023-05-02T14:26:23.764Z,961.9370
2023-05-02T14:27:25.597Z,961.9438
2023-05-02T14:28:27.430Z,961.9661
2023-05-02T14:29:29.274Z,961.9985
2023-05-02T14:30:31.108Z,962.0192
2023-05-02T14:31:33.015Z,961.9738
2023-05-02T14:32:34.865Z,961.9477
2023-05-02T14:33:36.616Z,961.9600
2023-05-02T14:34:38.460Z,961.9900
2023-05-02T14:35:40.286Z,962.0231
2023-05-02T14:36:42.120Z,962.0431
2023-05-02T14:37:43.957Z,962.0000
2023-05-02T14:38:45.813Z,961.9246
2023-05-02T14:39:50.735Z,961.9016
2023-05-02T14:40:49.469Z,961.9246
2023-05-02T14:41:51.312Z,961.9492
2023-05-02T14:42:53.164Z,961.9761
2023-05-02T14:43:54.978Z,961.9669
2023-05-02T14:44:58.906Z,961.9192
2023-05-02T14:45:58.648Z,961.9192
2023-05-02T14:47:00.544Z,961.9692
2023-05-02T14:48:02.392Z,962.0177
2023-05-02T14:49:04.169Z,962.0515
2023-05-02T14:50:06.075Z,962.0615
2023-05-02T14:51:07.826Z,962.0108
2023-05-02T14:52:09.681Z,961.9915
2023-05-02T14:53:11.512Z,962.0200
2023-05-02T14:54:13.360Z,962.0515
2023-05-02T14:55:15.190Z,962.0715
2023-05-02T14:56:17.021Z,962.0946
2023-05-02T14:57:18.895Z,962.0446
2023-05-02T14:58:21.040Z,961.9969
2023-05-02T14:59:22.673Z,962.0054
2023-05-02T15:00:24.370Z,962.0246
2023-05-02T15:01:26.294Z,962.0592
2023-05-02T15:02:28.123Z,962.0746
2023-05-02T15:03:30.026Z,962.0361
2023-05-02T15:04:31.990Z,961.9692
2023-05-02T15:05:33.536Z,961.9539
2023-05-02T15:06:35.975Z,961.9869
2023-05-02T15:07:37.226Z,962.0208
2023-05-02T15:08:39.274Z,962.0623
2023-05-02T15:09:40.908Z,962.0723
2023-05-02T15:10:42.740Z,962.0115
2023-05-02T15:11:44.585Z,962.0000
2023-05-02T15:12:46.408Z,962.0223
2023-05-02T15:13:48.271Z,962.0631
2023-05-02T15:14:50.094Z,962.1015
2023-05-02T15:15:51.949Z,962.1308
2023-05-02T15:16:53.825Z,962.0908
2023-05-02T15:17:55.696Z,962.0377
2023-05-02T15:18:57.458Z,962.0331
2023-05-02T15:19:59.426Z,962.0685
2023-05-02T15:21:01.130Z,962.1038
2023-05-02T15:22:02.981Z,962.1315
2023-05-02T15:23:04.865Z,962.1200
2023-05-02T15:24:06.663Z,962.0654
2023-05-02T15:25:08.500Z,962.0354
2023-05-02T15:26:10.330Z,962.0346
2023-05-02T15:27:12.182Z,962.0485
2023-05-02T15:28:14.039Z,962.0615
2023-05-02T15:29:15.849Z,962.0854
2023-05-02T15:30:18.092Z,962.0346
2023-05-02T15:31:19.563Z,962.0254
2023-05-02T15:32:21.451Z,962.0416
2023-05-02T15:33:23.206Z,962.0739
2023-05-02T15:34:25.074Z,962.1046
2023-05-02T15:35:26.890Z,962.1285
2023-05-02T15:36:28.766Z,962.0869
2023-05-02T15:37:30.582Z,962.0400
2023-05-02T15:38:32.399Z,962.0392
2023-05-02T15:39:34.253Z,962.0739
2023-05-02T15:40:36.080Z,962.0939
2023-05-02T15:41:37.928Z,962.1192
2023-05-02T15:42:39.773Z,962.1169
2023-05-02T15:43:41.608Z,962.0723
2023-05-02T15:44:43.446Z,962.0662
2023-05-02T15:45:45.278Z,962.0739
2023-05-02T15:46:47.349Z,962.1146
2023-05-02T15:47:48.942Z,962.1431
2023-05-02T15:48:50.813Z,962.1454
2023-05-02T15:49:52.614Z,962.0892
2023-05-02T15:50:54.485Z,962.0493
2023-05-02T15:51:56.316Z,962.0707
2023-05-02T15:52:58.151Z,962.1108
2023-05-02T15:53:59.967Z,962.1362
2023-05-02T15:55:01.837Z,962.1623
2023-05-02T15:56:03.637Z,962.1477
2023-05-02T15:57:05.476Z,962.1246
2023-05-02T15:58:07.294Z,962.1508
2023-05-02T15:59:09.131Z,962.1785
2023-05-02T16:00:10.981Z,962.2100
2023-05-02T16:01:12.855Z,962.2285
2023-05-02T16:02:14.657Z,962.1992
2023-05-02T16:03:16.494Z,962.1523
2023-05-02T16:04:18.349Z,962.1508
2023-05-02T16:05:20.167Z,962.1693
2023-05-02T16:06:22.048Z,962.1992
2023-05-02T16:07:23.848Z,962.2308
2023-05-02T16:08:25.685Z,962.2231
2023-05-02T16:09:27.516Z,962.1546
2023-05-02T16:10:29.357Z,962.1223
2023-05-02T16:11:31.259Z,962.1431
2023-05-02T16:12:33.034Z,962.1831
2023-05-02T16:13:34.881Z,962.2131
2023-05-02T16:14:36.727Z,962.2338
2023-05-02T16:15:38.557Z,962.2084
2023-05-02T16:16:40.593Z,962.1653
2023-05-02T16:17:42.274Z,962.1777
2023-05-02T16:18:44.091Z,962.2100
2023-05-02T16:19:45.927Z,962.2277
2023-05-02T16:20:47.794Z,962.2523
2023-05-02T16:21:49.610Z,962.2361
2023-05-02T16:22:51.451Z,962.2008
2023-05-02T16:23:53.279Z,962.2047
2023-05-02T16:24:55.133Z,962.2277
2023-05-02T16:25:56.966Z,962.2562
2023-05-02T16:26:58.829Z,962.2723
2023-05-02T16:28:00.648Z,962.2585
2023-05-02T16:29:02.496Z,962.2138
2023-05-02T16:30:04.604Z,962.1923
2023-05-02T16:31:06.229Z,962.2100
2023-05-02T16:32:08.035Z,962.2354
2023-05-02T16:33:09.902Z,962.2646
2023-05-02T16:34:11.696Z,962.2600
2023-05-02T16:35:13.560Z,962.2062
2023-05-02T16:36:15.375Z,962.1923
2023-05-02T16:37:17.244Z,962.2315
2023-05-02T16:38:19.065Z,962.2892
2023-05-02T16:39:20.926Z,962.3416
2023-05-02T16:40:22.749Z,962.3646
2023-05-02T16:41:24.605Z,962.3454
2023-05-02T16:42:26.420Z,962.3254
2023-05-02T16:43:28.267Z,962.3377
2023-05-02T16:44:30.103Z,962.3577
2023-05-02T16:45:31.957Z,962.3730
2023-05-02T16:46:33.849Z,962.3777
2023-05-02T16:47:35.637Z,962.3339
2023-05-02T16:48:37.467Z,962.2700
2023-05-02T16:49:39.313Z,962.2677
2023-05-02T16:50:41.143Z,962.3054
2023-05-02T16:51:43.014Z,962.3477
2023-05-02T16:52:44.827Z,962.3892
2023-05-02T16:53:46.647Z,962.4023
2023-05-02T16:54:48.498Z,962.3692
2023-05-02T16:55:50.343Z,962.3730
2023-05-02T16:56:52.175Z,962.4023
2023-05-02T16:57:53.993Z,962.4323
2023-05-02T16:58:55.854Z,962.4608
2023-05-02T16:59:57.670Z,962.4615
2023-05-02T17:00:59.562Z,962.4161
2023-05-02T17:02:01.395Z,962.3608
2023-05-02T17:03:05.212Z,962.3785
2023-05-02T17:04:05.029Z,962.4323
2023-05-02T17:05:06.891Z,962.4631
2023-05-02T17:06:08.731Z,962.4892
2023-05-02T17:07:10.554Z,962.4785
2023-05-02T17:08:12.408Z,962.4615
2023-05-02T17:09:14.239Z,962.4854
2023-05-02T17:10:16.112Z,962.5269
2023-05-02T17:11:17.916Z,962.5638
2023-05-02T17:12:19.781Z,962.6053
2023-05-02T17:13:21.598Z,962.5954
2023-05-02T17:14:23.447Z,962.5354
2023-05-02T17:15:25.287Z,962.5585
2023-05-02T17:16:27.150Z,962.6385
2023-05-02T17:17:28.968Z,962.7246
2023-05-02T17:18:30.788Z,962.7923
2023-05-02T17:19:32.649Z,962.7877
2023-05-02T17:20:34.470Z,962.7462
2023-05-02T17:21:36.301Z,962.7231
2023-05-02T17:22:38.163Z,962.7361
2023-05-02T17:23:39.982Z,962.7570
2023-05-02T17:24:41.825Z,962.7961
2023-05-02T17:25:43.675Z,962.8231
2023-05-02T17:26:45.511Z,962.7900
2023-05-02T17:27:47.495Z,962.7346